バンダルスリブガワン の空港の天気 - METARとTAF

ブルネイ国際空港 ( WBSB / BWN ) - ブルネイ バンダルスリブガワン
飛行場実況気象(Metar)
観測時間08/26 02:30 BNT (08/25 18:30 UTC)
風向・風速南 2m/s
視程10km以上
天気現象
少しの雲 雲底高度 430m
全天の8割程度の雲 雲底高度 8530m
気温26℃
湿度89%
気圧1010hPa
METARWBSB 251830Z 19003KT 9999 FEW014 BKN280 26/24 Q1010 NOSIG
過去の天気等 Google飛行場航空写真 Wunderground天気予報

過去48時間のMETAR

飛行場予報(TAF)
発表時間: 8/26 01:00 BNT (8/25 17:00 UTC)
予報対象時間: 26日2時 BNT ~ 27日8時 BNT
風向・風速南南西 2m/s
視程10km以上
少しの雲 雲底高度 460m
少しの積乱雲 雲底高度 490m
26日4時 BNT ~ 26日6時 BNT に一時的に
視程7000m
天気現象しゅう雨
26日11時 BNT ~ 26日13時 BNT に徐々に
風向・風速西北西 5m/s
全天の4割程度の雲 雲底高度 490m
少しの積乱雲 雲底高度 520m
TAF WBSB 251700Z 2518/2700 20003KT 9999 FEW015 FEW016CB
TEMPO 2520/2522 7000 SHRA
BECMG 2603/2605 30010KT SCT016 FEW017CB